sensor_id;sensor_type;location;lat;lon;timestamp;temperature;humidity
17152;DHT22;8691;50.828;4.700;2022-11-20T00:00:01;4.10;99.90
17152;DHT22;8691;50.828;4.700;2022-11-20T00:02:28;4.20;99.90
17152;DHT22;8691;50.828;4.700;2022-11-20T00:04:55;4.20;99.90
17152;DHT22;8691;50.828;4.700;2022-11-20T00:07:21;4.30;99.90
17152;DHT22;8691;50.828;4.700;2022-11-20T00:09:48;4.30;99.90
17152;DHT22;8691;50.828;4.700;2022-11-20T00:12:15;4.30;99.90
17152;DHT22;8691;50.828;4.700;2022-11-20T00:14:42;4.20;99.90
17152;DHT22;8691;50.828;4.700;2022-11-20T00:17:09;4.20;99.90
17152;DHT22;8691;50.828;4.700;2022-11-20T00:19:36;4.20;99.90
17152;DHT22;8691;50.828;4.700;2022-11-20T00:22:03;4.20;99.90
17152;DHT22;8691;50.828;4.700;2022-11-20T00:24:31;4.20;99.90
17152;DHT22;8691;50.828;4.700;2022-11-20T00:26:58;4.20;99.90
17152;DHT22;8691;50.828;4.700;2022-11-20T00:29:25;4.20;99.90
17152;DHT22;8691;50.828;4.700;2022-11-20T00:31:52;4.20;99.90
17152;DHT22;8691;50.828;4.700;2022-11-20T00:34:19;4.20;99.90
17152;DHT22;8691;50.828;4.700;2022-11-20T00:36:47;4.20;99.90
17152;DHT22;8691;50.828;4.700;2022-11-20T00:39:14;4.20;99.90
17152;DHT22;8691;50.828;4.700;2022-11-20T00:41:41;4.20;99.90
17152;DHT22;8691;50.828;4.700;2022-11-20T00:44:08;4.20;99.90
17152;DHT22;8691;50.828;4.700;2022-11-20T00:46:35;4.30;99.90
17152;DHT22;8691;50.828;4.700;2022-11-20T00:49:02;4.30;99.90
17152;DHT22;8691;50.828;4.700;2022-11-20T00:51:29;4.30;99.90
17152;DHT22;8691;50.828;4.700;2022-11-20T00:53:56;4.20;99.90
17152;DHT22;8691;50.828;4.700;2022-11-20T00:56:22;4.10;99.90
17152;DHT22;8691;50.828;4.700;2022-11-20T00:58:49;4.10;99.90
17152;DHT22;8691;50.828;4.700;2022-11-20T01:01:17;4.10;99.90
17152;DHT22;8691;50.828;4.700;2022-11-20T01:03:44;4.20;99.90
17152;DHT22;8691;50.828;4.700;2022-11-20T01:06:11;4.10;99.90
17152;DHT22;8691;50.828;4.700;2022-11-20T01:08:36;4.20;99.90
17152;DHT22;8691;50.828;4.700;2022-11-20T01:11:07;4.20;99.90
17152;DHT22;8691;50.828;4.700;2022-11-20T01:13:30;4.20;99.90
17152;DHT22;8691;50.828;4.700;2022-11-20T01:16:12;4.20;99.90
17152;DHT22;8691;50.828;4.700;2022-11-20T01:18:38;4.10;99.90
17152;DHT22;8691;50.828;4.700;2022-11-20T01:21:06;4.10;99.90
17152;DHT22;8691;50.828;4.700;2022-11-20T01:23:32;4.20;99.90
17152;DHT22;8691;50.828;4.700;2022-11-20T01:26:00;4.30;99.90
17152;DHT22;8691;50.828;4.700;2022-11-20T01:28:27;4.30;99.90
17152;DHT22;8691;50.828;4.700;2022-11-20T01:30:54;4.30;99.90
17152;DHT22;8691;50.828;4.700;2022-11-20T01:33:21;4.30;99.90
17152;DHT22;8691;50.828;4.700;2022-11-20T01:35:48;4.30;99.90
17152;DHT22;8691;50.828;4.700;2022-11-20T01:38:16;4.20;99.90
17152;DHT22;8691;50.828;4.700;2022-11-20T01:40:43;4.20;99.90
17152;DHT22;8691;50.828;4.700;2022-11-20T01:43:19;4.20;99.90
17152;DHT22;8691;50.828;4.700;2022-11-20T01:46:14;4.20;99.90
17152;DHT22;8691;50.828;4.700;2022-11-20T01:48:43;4.30;99.90
17152;DHT22;8691;50.828;4.700;2022-11-20T01:51:22;4.20;99.90
17152;DHT22;8691;50.828;4.700;2022-11-20T01:53:44;4.20;99.90
17152;DHT22;8691;50.828;4.700;2022-11-20T01:56:12;4.20;99.90
17152;DHT22;8691;50.828;4.700;2022-11-20T01:58:39;4.20;99.90
17152;DHT22;8691;50.828;4.700;2022-11-20T02:01:05;4.20;99.90
17152;DHT22;8691;50.828;4.700;2022-11-20T02:03:31;4.20;99.90
17152;DHT22;8691;50.828;4.700;2022-11-20T02:06:22;4.20;99.90
17152;DHT22;8691;50.828;4.700;2022-11-20T02:08:46;4.30;99.90
17152;DHT22;8691;50.828;4.700;2022-11-20T02:11:13;4.30;99.90
17152;DHT22;8691;50.828;4.700;2022-11-20T02:13:40;4.30;99.90
17152;DHT22;8691;50.828;4.700;2022-11-20T02:16:28;4.30;99.90
17152;DHT22;8691;50.828;4.700;2022-11-20T02:18:54;4.30;99.90
17152;DHT22;8691;50.828;4.700;2022-11-20T02:21:26;4.20;99.90
17152;DHT22;8691;50.828;4.700;2022-11-20T02:23:59;4.20;99.90
17152;DHT22;8691;50.828;4.700;2022-11-20T02:26:21;4.20;99.90
17152;DHT22;8691;50.828;4.700;2022-11-20T02:28:49;4.20;99.90
17152;DHT22;8691;50.828;4.700;2022-11-20T02:31:16;4.20;99.90
17152;DHT22;8691;50.828;4.700;2022-11-20T02:33:42;4.30;99.90
17152;DHT22;8691;50.828;4.700;2022-11-20T02:36:09;4.30;99.90
17152;DHT22;8691;50.828;4.700;2022-11-20T02:38:36;4.30;99.90
17152;DHT22;8691;50.828;4.700;2022-11-20T02:41:03;4.30;99.90
17152;DHT22;8691;50.828;4.700;2022-11-20T02:43:30;4.20;99.90
17152;DHT22;8691;50.828;4.700;2022-11-20T02:45:58;4.20;99.90
17152;DHT22;8691;50.828;4.700;2022-11-20T02:48:24;4.20;99.90
17152;DHT22;8691;50.828;4.700;2022-11-20T02:50:51;4.20;99.90
17152;DHT22;8691;50.828;4.700;2022-11-20T02:53:18;4.20;99.90
17152;DHT22;8691;50.828;4.700;2022-11-20T02:55:45;4.20;99.90
17152;DHT22;8691;50.828;4.700;2022-11-20T02:58:12;4.30;99.90
17152;DHT22;8691;50.828;4.700;2022-11-20T03:00:39;4.30;99.90
17152;DHT22;8691;50.828;4.700;2022-11-20T03:03:05;4.30;99.90
17152;DHT22;8691;50.828;4.700;2022-11-20T03:05:32;4.30;99.90
17152;DHT22;8691;50.828;4.700;2022-11-20T03:07:59;4.30;99.90
17152;DHT22;8691;50.828;4.700;2022-11-20T03:10:26;4.30;99.90
17152;DHT22;8691;50.828;4.700;2022-11-20T03:12:56;4.30;99.90
17152;DHT22;8691;50.828;4.700;2022-11-20T03:15:20;4.30;99.90
17152;DHT22;8691;50.828;4.700;2022-11-20T03:17:46;4.30;99.90
17152;DHT22;8691;50.828;4.700;2022-11-20T03:20:13;4.20;99.90
17152;DHT22;8691;50.828;4.700;2022-11-20T03:22:40;4.30;99.90
17152;DHT22;8691;50.828;4.700;2022-11-20T03:25:07;4.30;99.90
17152;DHT22;8691;50.828;4.700;2022-11-20T03:27:34;4.30;99.90
17152;DHT22;8691;50.828;4.700;2022-11-20T03:30:00;4.30;99.90
17152;DHT22;8691;50.828;4.700;2022-11-20T03:32:27;4.30;99.90
17152;DHT22;8691;50.828;4.700;2022-11-20T03:34:54;4.30;99.90
17152;DHT22;8691;50.828;4.700;2022-11-20T03:37:21;4.30;99.90
17152;DHT22;8691;50.828;4.700;2022-11-20T03:39:48;4.30;99.90
17152;DHT22;8691;50.828;4.700;2022-11-20T03:42:15;4.30;99.90
17152;DHT22;8691;50.828;4.700;2022-11-20T03:45:00;4.20;99.90
17152;DHT22;8691;50.828;4.700;2022-11-20T03:47:27;4.20;99.90
17152;DHT22;8691;50.828;4.700;2022-11-20T03:49:53;4.30;99.90
17152;DHT22;8691;50.828;4.700;2022-11-20T03:52:20;4.30;99.90
17152;DHT22;8691;50.828;4.700;2022-11-20T03:54:47;4.30;99.90
17152;DHT22;8691;50.828;4.700;2022-11-20T03:57:14;4.40;99.90
17152;DHT22;8691;50.828;4.700;2022-11-20T03:59:41;4.40;99.90
17152;DHT22;8691;50.828;4.700;2022-11-20T04:02:08;4.40;99.90
17152;DHT22;8691;50.828;4.700;2022-11-20T04:04:35;4.40;99.90
17152;DHT22;8691;50.828;4.700;2022-11-20T04:07:02;4.40;99.90
17152;DHT22;8691;50.828;4.700;2022-11-20T04:09:29;4.40;99.90
17152;DHT22;8691;50.828;4.700;2022-11-20T04:11:55;4.40;99.90
17152;DHT22;8691;50.828;4.700;2022-11-20T04:14:22;4.40;99.90
17152;DHT22;8691;50.828;4.700;2022-11-20T04:16:49;4.40;99.90
17152;DHT22;8691;50.828;4.700;2022-11-20T04:19:16;4.50;99.90
17152;DHT22;8691;50.828;4.700;2022-11-20T04:21:43;4.50;99.90
17152;DHT22;8691;50.828;4.700;2022-11-20T04:24:10;4.50;99.90
17152;DHT22;8691;50.828;4.700;2022-11-20T04:26:37;4.50;99.90
17152;DHT22;8691;50.828;4.700;2022-11-20T04:29:04;4.50;99.90
17152;DHT22;8691;50.828;4.700;2022-11-20T04:31:34;4.40;99.90
17152;DHT22;8691;50.828;4.700;2022-11-20T04:34:02;4.40;99.90
17152;DHT22;8691;50.828;4.700;2022-11-20T04:36:28;4.40;99.90
17152;DHT22;8691;50.828;4.700;2022-11-20T04:38:55;4.40;99.90
17152;DHT22;8691;50.828;4.700;2022-11-20T04:41:22;4.40;99.90
17152;DHT22;8691;50.828;4.700;2022-11-20T04:43:48;4.40;99.90
17152;DHT22;8691;50.828;4.700;2022-11-20T04:46:15;4.40;99.90
17152;DHT22;8691;50.828;4.700;2022-11-20T04:48:41;4.30;99.90
17152;DHT22;8691;50.828;4.700;2022-11-20T04:51:09;4.10;99.90
17152;DHT22;8691;50.828;4.700;2022-11-20T04:53:37;4.10;99.90
17152;DHT22;8691;50.828;4.700;2022-11-20T04:56:05;4.00;99.90
17152;DHT22;8691;50.828;4.700;2022-11-20T04:58:31;4.00;99.90
17152;DHT22;8691;50.828;4.700;2022-11-20T05:01:04;4.10;99.90
17152;DHT22;8691;50.828;4.700;2022-11-20T05:03:30;4.10;99.90
17152;DHT22;8691;50.828;4.700;2022-11-20T05:06:00;4.00;99.90
17152;DHT22;8691;50.828;4.700;2022-11-20T05:08:27;4.00;99.90
17152;DHT22;8691;50.828;4.700;2022-11-20T05:10:53;4.10;99.90
17152;DHT22;8691;50.828;4.700;2022-11-20T05:13:20;4.00;99.90
17152;DHT22;8691;50.828;4.700;2022-11-20T05:15:47;3.90;99.90
17152;DHT22;8691;50.828;4.700;2022-11-20T05:18:14;3.90;99.90
17152;DHT22;8691;50.828;4.700;2022-11-20T05:20:41;4.00;99.90
17152;DHT22;8691;50.828;4.700;2022-11-20T05:23:08;4.10;99.90
17152;DHT22;8691;50.828;4.700;2022-11-20T05:25:35;4.20;99.90
17152;DHT22;8691;50.828;4.700;2022-11-20T05:28:01;4.30;99.90
17152;DHT22;8691;50.828;4.700;2022-11-20T05:30:28;4.40;99.90
17152;DHT22;8691;50.828;4.700;2022-11-20T05:32:55;4.40;99.90
17152;DHT22;8691;50.828;4.700;2022-11-20T05:35:21;4.40;99.90
17152;DHT22;8691;50.828;4.700;2022-11-20T05:37:48;4.40;99.90
17152;DHT22;8691;50.828;4.700;2022-11-20T05:40:16;4.40;99.90
17152;DHT22;8691;50.828;4.700;2022-11-20T05:42:43;4.40;99.90
17152;DHT22;8691;50.828;4.700;2022-11-20T05:45:09;4.50;99.90
17152;DHT22;8691;50.828;4.700;2022-11-20T05:47:36;4.50;99.90
17152;DHT22;8691;50.828;4.700;2022-11-20T05:50:03;4.50;99.90
17152;DHT22;8691;50.828;4.700;2022-11-20T05:52:30;4.50;99.90
17152;DHT22;8691;50.828;4.700;2022-11-20T05:54:57;4.50;99.90
17152;DHT22;8691;50.828;4.700;2022-11-20T05:57:24;4.60;99.90
17152;DHT22;8691;50.828;4.700;2022-11-20T05:59:50;4.60;99.90
17152;DHT22;8691;50.828;4.700;2022-11-20T06:02:17;4.50;99.90
17152;DHT22;8691;50.828;4.700;2022-11-20T06:04:44;4.60;99.90
17152;DHT22;8691;50.828;4.700;2022-11-20T06:07:12;4.60;99.90
17152;DHT22;8691;50.828;4.700;2022-11-20T06:09:39;4.60;99.90
17152;DHT22;8691;50.828;4.700;2022-11-20T06:12:05;4.60;99.90
17152;DHT22;8691;50.828;4.700;2022-11-20T06:14:32;4.70;99.90
17152;DHT22;8691;50.828;4.700;2022-11-20T06:17:00;4.70;99.90
17152;DHT22;8691;50.828;4.700;2022-11-20T06:19:27;4.60;99.90
17152;DHT22;8691;50.828;4.700;2022-11-20T06:21:53;4.60;99.90
17152;DHT22;8691;50.828;4.700;2022-11-20T06:24:20;4.60;99.90
17152;DHT22;8691;50.828;4.700;2022-11-20T06:26:47;4.60;99.90
17152;DHT22;8691;50.828;4.700;2022-11-20T06:29:14;4.50;99.90
17152;DHT22;8691;50.828;4.700;2022-11-20T06:31:40;4.50;99.90
17152;DHT22;8691;50.828;4.700;2022-11-20T06:34:07;4.40;99.90
17152;DHT22;8691;50.828;4.700;2022-11-20T06:36:34;4.40;99.90
17152;DHT22;8691;50.828;4.700;2022-11-20T06:39:01;4.40;99.90
17152;DHT22;8691;50.828;4.700;2022-11-20T06:41:28;4.40;99.90
17152;DHT22;8691;50.828;4.700;2022-11-20T06:43:55;4.40;99.90
17152;DHT22;8691;50.828;4.700;2022-11-20T06:46:22;4.40;99.90
17152;DHT22;8691;50.828;4.700;2022-11-20T06:48:49;4.50;99.90
17152;DHT22;8691;50.828;4.700;2022-11-20T06:51:16;4.50;99.90
17152;DHT22;8691;50.828;4.700;2022-11-20T06:53:43;4.50;99.90
17152;DHT22;8691;50.828;4.700;2022-11-20T06:56:10;4.50;99.90
17152;DHT22;8691;50.828;4.700;2022-11-20T06:58:37;4.50;99.90
17152;DHT22;8691;50.828;4.700;2022-11-20T07:01:08;4.50;99.90
17152;DHT22;8691;50.828;4.700;2022-11-20T07:03:32;4.50;99.90
17152;DHT22;8691;50.828;4.700;2022-11-20T07:05:59;4.60;99.90
17152;DHT22;8691;50.828;4.700;2022-11-20T07:08:26;4.50;99.90
17152;DHT22;8691;50.828;4.700;2022-11-20T07:10:52;4.60;99.90
17152;DHT22;8691;50.828;4.700;2022-11-20T07:13:19;4.60;99.90
17152;DHT22;8691;50.828;4.700;2022-11-20T07:15:46;4.60;99.90
17152;DHT22;8691;50.828;4.700;2022-11-20T07:18:13;4.70;99.90
17152;DHT22;8691;50.828;4.700;2022-11-20T07:20:40;4.70;99.90
17152;DHT22;8691;50.828;4.700;2022-11-20T07:23:06;4.70;99.90
17152;DHT22;8691;50.828;4.700;2022-11-20T07:25:34;4.80;99.90
17152;DHT22;8691;50.828;4.700;2022-11-20T07:28:02;4.90;99.90
17152;DHT22;8691;50.828;4.700;2022-11-20T07:30:29;4.90;99.90
17152;DHT22;8691;50.828;4.700;2022-11-20T07:32:55;4.90;99.90
17152;DHT22;8691;50.828;4.700;2022-11-20T07:35:23;5.00;99.90
17152;DHT22;8691;50.828;4.700;2022-11-20T07:37:49;5.00;99.90
17152;DHT22;8691;50.828;4.700;2022-11-20T07:40:16;5.00;99.90
17152;DHT22;8691;50.828;4.700;2022-11-20T07:42:52;5.10;99.90
17152;DHT22;8691;50.828;4.700;2022-11-20T07:45:18;5.10;99.90
17152;DHT22;8691;50.828;4.700;2022-11-20T07:47:45;5.20;99.90
17152;DHT22;8691;50.828;4.700;2022-11-20T07:50:12;5.30;99.90
17152;DHT22;8691;50.828;4.700;2022-11-20T07:52:38;5.40;99.90
17152;DHT22;8691;50.828;4.700;2022-11-20T07:55:06;5.40;99.90
17152;DHT22;8691;50.828;4.700;2022-11-20T07:57:32;5.50;99.90
17152;DHT22;8691;50.828;4.700;2022-11-20T07:59:59;5.50;99.90
17152;DHT22;8691;50.828;4.700;2022-11-20T08:02:25;5.50;99.90
17152;DHT22;8691;50.828;4.700;2022-11-20T08:04:52;5.50;99.90
17152;DHT22;8691;50.828;4.700;2022-11-20T08:07:19;5.60;99.90
17152;DHT22;8691;50.828;4.700;2022-11-20T08:09:46;5.60;99.90
17152;DHT22;8691;50.828;4.700;2022-11-20T08:12:20;5.70;99.90
17152;DHT22;8691;50.828;4.700;2022-11-20T08:15:04;5.70;99.90
17152;DHT22;8691;50.828;4.700;2022-11-20T08:17:31;5.70;99.90
17152;DHT22;8691;50.828;4.700;2022-11-20T08:19:57;5.70;99.90
17152;DHT22;8691;50.828;4.700;2022-11-20T08:22:24;5.70;99.90
17152;DHT22;8691;50.828;4.700;2022-11-20T08:24:52;5.90;99.90
17152;DHT22;8691;50.828;4.700;2022-11-20T08:27:19;5.90;99.90
17152;DHT22;8691;50.828;4.700;2022-11-20T08:29:47;6.00;99.90
17152;DHT22;8691;50.828;4.700;2022-11-20T08:32:14;5.90;99.90
17152;DHT22;8691;50.828;4.700;2022-11-20T08:34:41;6.10;99.90
17152;DHT22;8691;50.828;4.700;2022-11-20T08:37:08;6.10;99.90
17152;DHT22;8691;50.828;4.700;2022-11-20T08:39:35;6.20;99.90
17152;DHT22;8691;50.828;4.700;2022-11-20T08:42:02;6.20;99.90
17152;DHT22;8691;50.828;4.700;2022-11-20T08:44:29;6.10;99.90
17152;DHT22;8691;50.828;4.700;2022-11-20T08:46:55;6.20;99.90
17152;DHT22;8691;50.828;4.700;2022-11-20T08:49:22;6.20;99.90
17152;DHT22;8691;50.828;4.700;2022-11-20T08:51:49;6.30;99.90
17152;DHT22;8691;50.828;4.700;2022-11-20T08:54:16;6.40;99.90
17152;DHT22;8691;50.828;4.700;2022-11-20T08:56:42;6.50;99.90
17152;DHT22;8691;50.828;4.700;2022-11-20T08:59:09;6.50;99.90
17152;DHT22;8691;50.828;4.700;2022-11-20T09:01:37;6.60;99.90
17152;DHT22;8691;50.828;4.700;2022-11-20T09:04:04;6.60;99.90
17152;DHT22;8691;50.828;4.700;2022-11-20T09:06:31;6.60;99.90
17152;DHT22;8691;50.828;4.700;2022-11-20T09:08:58;6.60;99.90
17152;DHT22;8691;50.828;4.700;2022-11-20T09:11:25;6.70;99.90
17152;DHT22;8691;50.828;4.700;2022-11-20T09:13:52;6.70;99.90
17152;DHT22;8691;50.828;4.700;2022-11-20T09:16:19;6.70;99.90
17152;DHT22;8691;50.828;4.700;2022-11-20T09:18:45;6.90;99.90
17152;DHT22;8691;50.828;4.700;2022-11-20T09:21:12;6.90;99.90
17152;DHT22;8691;50.828;4.700;2022-11-20T09:23:39;7.00;99.90
17152;DHT22;8691;50.828;4.700;2022-11-20T09:26:08;7.10;99.90
17152;DHT22;8691;50.828;4.700;2022-11-20T09:28:33;7.10;99.90
17152;DHT22;8691;50.828;4.700;2022-11-20T09:31:04;7.30;99.90
17152;DHT22;8691;50.828;4.700;2022-11-20T09:33:28;7.30;99.90
17152;DHT22;8691;50.828;4.700;2022-11-20T09:35:54;7.40;99.90
17152;DHT22;8691;50.828;4.700;2022-11-20T09:38:21;7.50;99.90
17152;DHT22;8691;50.828;4.700;2022-11-20T09:41:01;7.60;99.90
17152;DHT22;8691;50.828;4.700;2022-11-20T09:46:17;7.80;99.90
17152;DHT22;8691;50.828;4.700;2022-11-20T09:54:02;8.00;99.90
17152;DHT22;8691;50.828;4.700;2022-11-20T09:56:26;8.10;99.90
17152;DHT22;8691;50.828;4.700;2022-11-20T09:58:57;8.00;99.90
17152;DHT22;8691;50.828;4.700;2022-11-20T10:01:26;8.10;99.90
17152;DHT22;8691;50.828;4.700;2022-11-20T10:06:21;8.30;99.90
17152;DHT22;8691;50.828;4.700;2022-11-20T10:08:55;8.30;99.90
17152;DHT22;8691;50.828;4.700;2022-11-20T10:11:25;8.30;99.90
17152;DHT22;8691;50.828;4.700;2022-11-20T10:14:23;8.50;99.90
17152;DHT22;8691;50.828;4.700;2022-11-20T10:24:53;8.40;99.90
17152;DHT22;8691;50.828;4.700;2022-11-20T10:30:07;8.40;99.90
17152;DHT22;8691;50.828;4.700;2022-11-20T10:32:34;8.50;99.90
17152;DHT22;8691;50.828;4.700;2022-11-20T10:37:30;8.60;99.90
17152;DHT22;8691;50.828;4.700;2022-11-20T10:39:59;8.70;99.90
17152;DHT22;8691;50.828;4.700;2022-11-20T10:42:30;8.80;99.90
17152;DHT22;8691;50.828;4.700;2022-11-20T10:44:55;8.90;99.90
17152;DHT22;8691;50.828;4.700;2022-11-20T10:47:30;8.90;99.90
17152;DHT22;8691;50.828;4.700;2022-11-20T10:49:56;8.90;99.90
17152;DHT22;8691;50.828;4.700;2022-11-20T10:52:51;9.00;99.90
17152;DHT22;8691;50.828;4.700;2022-11-20T10:55:35;9.10;99.90
17152;DHT22;8691;50.828;4.700;2022-11-20T11:00:51;9.30;99.90
17152;DHT22;8691;50.828;4.700;2022-11-20T11:05:50;9.50;99.90
17152;DHT22;8691;50.828;4.700;2022-11-20T11:08:16;9.70;99.90
17152;DHT22;8691;50.828;4.700;2022-11-20T11:10:56;9.80;99.90
17152;DHT22;8691;50.828;4.700;2022-11-20T11:13:24;9.80;99.90
17152;DHT22;8691;50.828;4.700;2022-11-20T11:15:48;9.70;99.90
17152;DHT22;8691;50.828;4.700;2022-11-20T11:18:32;9.70;99.90
17152;DHT22;8691;50.828;4.700;2022-11-20T11:20:57;9.80;99.90
17152;DHT22;8691;50.828;4.700;2022-11-20T11:26:17;9.90;99.90
17152;DHT22;8691;50.828;4.700;2022-11-20T11:28:34;9.90;99.90
17152;DHT22;8691;50.828;4.700;2022-11-20T11:31:02;9.90;99.90
17152;DHT22;8691;50.828;4.700;2022-11-20T11:33:29;9.90;99.90
17152;DHT22;8691;50.828;4.700;2022-11-20T11:35:59;9.90;99.90
17152;DHT22;8691;50.828;4.700;2022-11-20T11:38:34;10.00;99.90
17152;DHT22;8691;50.828;4.700;2022-11-20T11:40:57;9.90;99.90
17152;DHT22;8691;50.828;4.700;2022-11-20T11:43:25;10.00;99.90
17152;DHT22;8691;50.828;4.700;2022-11-20T11:49:11;9.90;99.90
17152;DHT22;8691;50.828;4.700;2022-11-20T11:51:30;9.90;99.90
17152;DHT22;8691;50.828;4.700;2022-11-20T11:53:54;9.90;99.90
17152;DHT22;8691;50.828;4.700;2022-11-20T11:56:21;9.80;99.90
17152;DHT22;8691;50.828;4.700;2022-11-20T11:58:51;10.00;99.90
17152;DHT22;8691;50.828;4.700;2022-11-20T12:01:38;10.00;99.90
17152;DHT22;8691;50.828;4.700;2022-11-20T12:04:17;10.20;99.90
17152;DHT22;8691;50.828;4.700;2022-11-20T12:06:44;10.10;99.90
17152;DHT22;8691;50.828;4.700;2022-11-20T12:09:10;10.20;99.90
17152;DHT22;8691;50.828;4.700;2022-11-20T12:11:56;10.10;99.90
17152;DHT22;8691;50.828;4.700;2022-11-20T12:14:31;10.00;99.90
17152;DHT22;8691;50.828;4.700;2022-11-20T12:16:54;9.80;99.90
17152;DHT22;8691;50.828;4.700;2022-11-20T12:19:20;9.70;99.90
17152;DHT22;8691;50.828;4.700;2022-11-20T12:22:05;9.50;99.90
17152;DHT22;8691;50.828;4.700;2022-11-20T12:30:15;9.10;99.90
17152;DHT22;8691;50.828;4.700;2022-11-20T12:35:50;8.90;99.90
17152;DHT22;8691;50.828;4.700;2022-11-20T12:38:30;8.80;99.90
17152;DHT22;8691;50.828;4.700;2022-11-20T12:41:22;8.70;99.90
17152;DHT22;8691;50.828;4.700;2022-11-20T12:44:01;8.70;99.90
17152;DHT22;8691;50.828;4.700;2022-11-20T12:46:43;8.70;99.90
17152;DHT22;8691;50.828;4.700;2022-11-20T12:49:13;8.60;99.90
17152;DHT22;8691;50.828;4.700;2022-11-20T12:54:18;8.60;99.90
17152;DHT22;8691;50.828;4.700;2022-11-20T12:56:57;8.50;99.90
17152;DHT22;8691;50.828;4.700;2022-11-20T12:59:34;8.50;99.90
17152;DHT22;8691;50.828;4.700;2022-11-20T13:07:22;8.40;99.90
17152;DHT22;8691;50.828;4.700;2022-11-20T13:09:49;8.30;99.90
17152;DHT22;8691;50.828;4.700;2022-11-20T13:14:47;8.40;99.90
17152;DHT22;8691;50.828;4.700;2022-11-20T13:17:28;8.40;99.90
17152;DHT22;8691;50.828;4.700;2022-11-20T13:19:55;8.40;99.90
17152;DHT22;8691;50.828;4.700;2022-11-20T13:22:42;8.50;99.90
17152;DHT22;8691;50.828;4.700;2022-11-20T13:24:55;8.60;99.90
17152;DHT22;8691;50.828;4.700;2022-11-20T13:27:23;8.70;99.90
17152;DHT22;8691;50.828;4.700;2022-11-20T13:30:03;8.70;99.90
17152;DHT22;8691;50.828;4.700;2022-11-20T13:32:25;8.70;99.90
17152;DHT22;8691;50.828;4.700;2022-11-20T13:34:59;8.60;99.90
17152;DHT22;8691;50.828;4.700;2022-11-20T13:37:35;8.60;99.90
17152;DHT22;8691;50.828;4.700;2022-11-20T13:45:11;8.50;99.90
17152;DHT22;8691;50.828;4.700;2022-11-20T13:47:37;8.40;99.90
17152;DHT22;8691;50.828;4.700;2022-11-20T13:50:04;8.40;99.90
17152;DHT22;8691;50.828;4.700;2022-11-20T13:55:16;8.30;99.90
17152;DHT22;8691;50.828;4.700;2022-11-20T13:58:05;8.20;99.90
17152;DHT22;8691;50.828;4.700;2022-11-20T14:00:31;8.20;99.90
17152;DHT22;8691;50.828;4.700;2022-11-20T14:03:15;8.20;99.90
17152;DHT22;8691;50.828;4.700;2022-11-20T14:05:38;8.30;99.90
17152;DHT22;8691;50.828;4.700;2022-11-20T14:08:04;8.30;99.90
17152;DHT22;8691;50.828;4.700;2022-11-20T14:10:30;8.20;99.90
17152;DHT22;8691;50.828;4.700;2022-11-20T14:12:57;8.20;99.90
17152;DHT22;8691;50.828;4.700;2022-11-20T14:15:30;8.20;99.90
17152;DHT22;8691;50.828;4.700;2022-11-20T14:17:57;8.30;99.90
17152;DHT22;8691;50.828;4.700;2022-11-20T14:20:27;8.20;99.90
17152;DHT22;8691;50.828;4.700;2022-11-20T14:22:54;8.30;99.90
17152;DHT22;8691;50.828;4.700;2022-11-20T14:25:25;8.30;99.90
17152;DHT22;8691;50.828;4.700;2022-11-20T14:27:55;8.30;99.90
17152;DHT22;8691;50.828;4.700;2022-11-20T14:30:25;8.30;99.90
17152;DHT22;8691;50.828;4.700;2022-11-20T14:32:52;8.30;99.90
17152;DHT22;8691;50.828;4.700;2022-11-20T14:35:20;8.30;99.90
17152;DHT22;8691;50.828;4.700;2022-11-20T14:37:45;8.30;99.90
17152;DHT22;8691;50.828;4.700;2022-11-20T14:40:26;8.20;99.90
17152;DHT22;8691;50.828;4.700;2022-11-20T14:42:47;8.20;99.90
17152;DHT22;8691;50.828;4.700;2022-11-20T14:45:14;8.20;99.90
17152;DHT22;8691;50.828;4.700;2022-11-20T14:47:41;8.20;99.90
17152;DHT22;8691;50.828;4.700;2022-11-20T14:50:23;8.20;99.90
17152;DHT22;8691;50.828;4.700;2022-11-20T14:52:51;8.20;99.90
17152;DHT22;8691;50.828;4.700;2022-11-20T14:55:33;8.10;99.90
17152;DHT22;8691;50.828;4.700;2022-11-20T14:58:21;8.20;99.90
17152;DHT22;8691;50.828;4.700;2022-11-20T15:00:26;8.20;99.90
17152;DHT22;8691;50.828;4.700;2022-11-20T15:02:53;8.20;99.90
17152;DHT22;8691;50.828;4.700;2022-11-20T15:05:20;8.20;99.90
17152;DHT22;8691;50.828;4.700;2022-11-20T15:07:48;8.10;99.90
17152;DHT22;8691;50.828;4.700;2022-11-20T15:10:25;8.10;99.90
17152;DHT22;8691;50.828;4.700;2022-11-20T15:12:55;8.20;99.90
17152;DHT22;8691;50.828;4.700;2022-11-20T15:15:26;8.20;99.90
17152;DHT22;8691;50.828;4.700;2022-11-20T15:17:48;8.20;99.90
17152;DHT22;8691;50.828;4.700;2022-11-20T15:20:16;8.20;99.90
17152;DHT22;8691;50.828;4.700;2022-11-20T15:22:42;8.20;99.90
17152;DHT22;8691;50.828;4.700;2022-11-20T15:25:15;8.30;99.90
17152;DHT22;8691;50.828;4.700;2022-11-20T15:27:39;8.20;99.90
17152;DHT22;8691;50.828;4.700;2022-11-20T15:30:11;8.30;99.90
17152;DHT22;8691;50.828;4.700;2022-11-20T15:32:32;8.30;99.90
17152;DHT22;8691;50.828;4.700;2022-11-20T15:34:59;8.30;99.90
17152;DHT22;8691;50.828;4.700;2022-11-20T15:37:25;8.30;99.90
17152;DHT22;8691;50.828;4.700;2022-11-20T15:39:52;8.30;99.90
17152;DHT22;8691;50.828;4.700;2022-11-20T15:42:19;8.30;99.90
17152;DHT22;8691;50.828;4.700;2022-11-20T15:44:46;8.40;99.90
17152;DHT22;8691;50.828;4.700;2022-11-20T15:47:13;8.40;99.90
17152;DHT22;8691;50.828;4.700;2022-11-20T15:49:40;8.50;99.90
17152;DHT22;8691;50.828;4.700;2022-11-20T15:52:08;8.50;99.90
17152;DHT22;8691;50.828;4.700;2022-11-20T15:54:34;8.50;99.90
17152;DHT22;8691;50.828;4.700;2022-11-20T15:57:02;8.50;99.90
17152;DHT22;8691;50.828;4.700;2022-11-20T15:59:29;8.50;99.90
17152;DHT22;8691;50.828;4.700;2022-11-20T16:01:56;8.60;99.90
17152;DHT22;8691;50.828;4.700;2022-11-20T16:04:23;8.60;99.90
17152;DHT22;8691;50.828;4.700;2022-11-20T16:06:50;8.60;99.90
17152;DHT22;8691;50.828;4.700;2022-11-20T16:09:17;8.60;99.90
17152;DHT22;8691;50.828;4.700;2022-11-20T16:11:44;8.50;99.90
17152;DHT22;8691;50.828;4.700;2022-11-20T16:14:10;8.50;99.90
17152;DHT22;8691;50.828;4.700;2022-11-20T16:16:56;8.40;99.90
17152;DHT22;8691;50.828;4.700;2022-11-20T16:19:23;8.30;99.90
17152;DHT22;8691;50.828;4.700;2022-11-20T16:21:50;8.40;99.90
17152;DHT22;8691;50.828;4.700;2022-11-20T16:24:16;8.40;99.90
17152;DHT22;8691;50.828;4.700;2022-11-20T16:26:43;8.40;99.90
17152;DHT22;8691;50.828;4.700;2022-11-20T16:29:10;8.40;99.90
17152;DHT22;8691;50.828;4.700;2022-11-20T16:31:37;8.30;99.90
17152;DHT22;8691;50.828;4.700;2022-11-20T16:34:05;8.30;99.90
17152;DHT22;8691;50.828;4.700;2022-11-20T16:36:31;8.20;99.90
17152;DHT22;8691;50.828;4.700;2022-11-20T16:38:58;8.20;99.90
17152;DHT22;8691;50.828;4.700;2022-11-20T16:41:26;8.00;99.90
17152;DHT22;8691;50.828;4.700;2022-11-20T16:43:53;8.00;99.90
17152;DHT22;8691;50.828;4.700;2022-11-20T16:46:19;8.00;99.90
17152;DHT22;8691;50.828;4.700;2022-11-20T16:48:53;7.90;99.90
17152;DHT22;8691;50.828;4.700;2022-11-20T16:51:19;7.90;99.90
17152;DHT22;8691;50.828;4.700;2022-11-20T16:53:46;8.00;99.90
17152;DHT22;8691;50.828;4.700;2022-11-20T16:56:17;8.20;99.90
17152;DHT22;8691;50.828;4.700;2022-11-20T16:58:43;8.10;99.90
17152;DHT22;8691;50.828;4.700;2022-11-20T17:01:11;8.30;99.90
17152;DHT22;8691;50.828;4.700;2022-11-20T17:03:38;8.30;99.90
17152;DHT22;8691;50.828;4.700;2022-11-20T17:06:17;8.30;99.90
17152;DHT22;8691;50.828;4.700;2022-11-20T17:08:43;8.30;99.90
17152;DHT22;8691;50.828;4.700;2022-11-20T17:11:11;8.20;99.90